Time;durP1;ratioP1;P1;durP2;ratioP2;P2;SDS_P1;SDS_P2;PMS_P1;PMS_P2;Temp;Humidity;BMP_temperature;BMP_pressure;BME280_temperature;BME280_humidity;BME280_pressure;Samples;Min_cycle;Max_cycle;Signal;HPM_P1;HPM_P2
2022/02/06 00:01:59;;;;;;;39.50;28.02;;;;;;;22.77;31.52;94968.69;4895867;28;96862;-51
2022/02/06 00:04:25;;;;;;;33.55;24.33;;;;;;;22.72;30.43;94963.63;4896215;28;96899;-48
2022/02/06 00:06:52;;;;;;;29.80;23.73;;;;;;;22.51;30.34;94978.34;4903893;28;99286;-50
2022/02/06 00:09:18;;;;;;;29.40;22.50;;;;;;;22.59;30.37;94981.84;4903426;28;99604;-44
2022/02/06 00:11:43;;;;;;;30.02;24.33;;;;;;;22.68;30.76;94984.13;4897478;28;96866;-45
2022/02/06 00:14:08;;;;;;;33.33;26.30;;;;;;;22.61;31.09;94984.97;4896299;28;97035;-49
2022/02/06 00:16:34;;;;;;;32.55;24.77;;;;;;;22.50;31.11;94982.28;4895436;28;99502;-51
2022/02/06 00:18:59;;;;;;;27.48;23.50;;;;;;;22.46;30.23;94989.78;4878131;28;99310;-48
2022/02/06 00:21:25;;;;;;;26.42;19.63;;;;;;;22.54;29.79;94991.28;4896422;28;96772;-50
2022/02/06 00:23:53;;;;;;;26.92;19.33;;;;;;;22.56;30.03;94982.66;4895978;28;96931;-49
2022/02/06 00:28:57;;;;;;;25.63;21.30;;;;;;;22.44;29.34;95003.94;4895967;28;97710;-45
2022/02/06 00:31:46;;;;;;;26.52;22.48;;;;;;;22.48;29.26;94993.69;4896621;28;96517;-44
2022/02/06 00:39:36;;;;;;;27.05;23.27;;;;;;;22.33;29.35;95003.19;4894288;28;96959;-46
2022/02/06 00:42:01;;;;;;;27.27;22.70;;;;;;;22.27;29.46;95007.56;4895787;28;96560;-46
2022/02/06 00:44:27;;;;;;;27.20;22.40;;;;;;;22.19;29.50;95002.09;4896404;28;96892;-46
2022/02/06 00:46:52;;;;;;;26.45;22.38;;;;;;;22.17;29.52;95000.94;4895497;28;99437;-48
2022/02/06 00:49:26;;;;;;;26.05;20.80;;;;;;;22.10;29.59;94996.22;4893553;28;99164;-49
2022/02/06 00:51:57;;;;;;;25.08;21.95;;;;;;;21.99;29.35;94992.78;4893634;28;96758;-52
2022/02/06 00:54:23;;;;;;;24.73;20.90;;;;;;;22.01;29.45;94991.19;4893677;28;97284;-47
2022/02/06 00:56:49;;;;;;;23.27;20.05;;;;;;;21.97;29.40;94997.91;4893299;28;99407;-46
2022/02/06 00:59:15;;;;;;;26.25;20.23;;;;;;;21.94;29.43;94982.97;4893696;28;99344;-48
2022/02/06 01:01:41;;;;;;;22.10;19.33;;;;;;;21.91;29.49;94984.56;4893710;28;97088;-46
2022/02/06 01:04:11;;;;;;;23.45;19.70;;;;;;;21.89;29.50;94975.94;4895782;28;96903;-45
2022/02/06 01:06:36;;;;;;;22.80;18.27;;;;;;;21.85;29.54;94980.66;4895212;28;99018;-46
2022/02/06 01:09:02;;;;;;;21.50;17.75;;;;;;;21.83;29.55;94972.03;4895604;28;99108;-47
2022/02/06 01:11:27;;;;;;;21.65;17.83;;;;;;;21.79;29.42;94970.44;4894247;28;96830;-46
2022/02/06 01:14:06;;;;;;;19.63;17.00;;;;;;;21.74;29.50;94964.22;4895671;28;97100;-44
2022/02/06 01:16:36;;;;;;;19.42;16.27;;;;;;;21.69;29.49;94961.88;4895460;28;99385;-47
2022/02/06 01:19:07;;;;;;;19.48;16.17;;;;;;;21.65;29.43;94965.81;4895569;28;99690;-44
2022/02/06 01:29:34;;;;;;;16.60;14.40;;;;;;;21.58;29.45;94958.34;4895094;28;97619;-49
2022/02/06 01:32:07;;;;;;;17.83;14.85;;;;;;;21.57;29.26;94965.81;4895092;28;96789;-48
2022/02/06 01:40:00;;;;;;;16.85;13.55;;;;;;;21.51;29.25;94961.91;4895048;28;97719;-47
2022/02/06 01:42:44;;;;;;;18.02;14.18;;;;;;;21.45;29.36;94963.50;4895701;28;96592;-46
2022/02/06 02:14:29;;;;;;;16.27;10.43;;;;;;;21.44;30.40;94961.94;4893040;28;97288;-47
2022/02/06 02:46:54;;;;;;;32.05;28.73;;;;;;;22.49;29.39;94961.44;4897530;28;96852;-38
2022/02/06 02:49:23;;;;;;;32.20;28.77;;;;;;;22.38;29.65;94958.75;4897313;28;96813;-42
2022/02/06 02:51:50;;;;;;;29.42;26.33;;;;;;;22.49;28.89;94956.72;4896459;28;99678;-41
2022/02/06 02:54:23;;;;;;;28.30;25.30;;;;;;;22.48;29.31;94960.66;4897085;28;99319;-42
2022/02/06 02:57:02;;;;;;;27.33;23.98;;;;;;;22.65;28.67;94958.97;4897503;28;96793;-41
2022/02/06 02:59:42;;;;;;;26.92;24.00;;;;;;;22.71;28.69;94967.56;4897303;28;96836;-41
2022/02/06 03:02:07;;;;;;;23.60;21.13;;;;;;;22.71;28.54;94966.78;4897242;28;99465;-43
2022/02/06 03:04:33;;;;;;;26.98;22.15;;;;;;;22.71;28.46;94967.56;4897275;28;99346;-40
2022/02/06 03:06:58;;;;;;;24.08;21.58;;;;;;;22.71;28.68;94972.28;4897181;28;96736;-40
2022/02/06 03:09:24;;;;;;;23.45;21.02;;;;;;;22.70;28.68;94971.50;4897644;28;97053;-43
2022/02/06 03:11:50;;;;;;;22.08;19.40;;;;;;;22.64;28.61;94973.16;4896020;28;99773;-41
2022/02/06 03:14:25;;;;;;;25.00;20.17;;;;;;;22.69;28.58;94975.44;4896896;28;99482;-41
2022/02/06 03:17:01;;;;;;;20.83;17.95;;;;;;;22.63;28.72;94977.09;4896890;28;96958;-41
2022/02/06 03:19:27;;;;;;;19.83;17.70;;;;;;;22.63;28.96;94983.38;4897356;28;96719;-41
2022/02/06 03:21:52;;;;;;;20.80;16.92;;;;;;;22.62;28.69;94976.28;4896592;28;99455;-41
2022/02/06 03:24:23;;;;;;;21.60;18.58;;;;;;;22.37;29.68;94973.69;4896361;28;99286;-41
2022/02/06 03:26:50;;;;;;;19.33;17.33;;;;;;;22.47;29.47;94966.56;4897318;28;96812;-41
2022/02/06 03:29:16;;;;;;;19.23;16.20;;;;;;;22.29;29.45;94963.91;4896669;28;96922;-41
2022/02/06 03:31:42;;;;;;;19.30;15.77;;;;;;;21.96;29.76;94964.09;4914286;28;99536;-39
2022/02/06 03:34:08;;;;;;;17.23;15.40;;;;;;;22.00;29.69;94969.59;4910101;28;99182;-39
2022/02/06 03:36:33;;;;;;;19.42;17.02;;;;;;;21.82;29.75;94975.97;4896565;28;96702;-40
2022/02/06 03:38:58;;;;;;;20.83;17.73;;;;;;;22.02;29.06;94967.22;4896672;28;97003;-40
2022/02/06 03:41:26;;;;;;;22.60;19.90;;;;;;;21.95;28.94;94968.03;4895908;28;99376;-40
2022/02/06 03:44:03;;;;;;;21.52;19.25;;;;;;;21.97;28.31;94960.16;4904923;28;99600;-40
2022/02/06 03:46:43;;;;;;;19.33;16.60;;;;;;;21.96;28.49;94968.81;4916146;28;96837;-39
2022/02/06 03:49:16;;;;;;;23.30;19.35;;;;;;;21.93;28.38;94964.91;4900071;28;97039;-43
2022/02/06 03:51:41;;;;;;;21.00;18.70;;;;;;;21.85;28.46;94969.66;4896609;28;99850;-40
2022/02/06 03:54:08;;;;;;;20.55;17.27;;;;;;;21.84;28.31;94962.59;4896522;28;99258;-40
2022/02/06 03:56:34;;;;;;;19.60;17.50;;;;;;;21.86;28.12;94962.97;4896748;28;96695;-43
2022/02/06 03:59:01;;;;;;;21.63;19.05;;;;;;;21.86;28.64;94965.72;4897221;28;96774;-41
2022/02/06 04:01:26;;;;;;;24.40;20.60;;;;;;;21.64;28.85;94956.00;4896159;28;99315;-42
2022/02/06 04:03:52;;;;;;;26.90;24.05;;;;;;;21.71;28.65;94958.72;4902984;28;99110;-43
2022/02/06 04:06:18;;;;;;;23.52;19.65;;;;;;;21.77;28.60;94962.63;4910801;28;96945;-42
2022/02/06 04:08:44;;;;;;;19.63;17.02;;;;;;;21.77;28.28;94962.63;4908811;28;96895;-42
2022/02/06 04:11:15;;;;;;;17.58;15.35;;;;;;;21.81;28.82;94966.13;4895609;28;99300;-41
2022/02/06 04:13:56;;;;;;;20.42;18.05;;;;;;;21.82;28.07;94967.72;4895854;28;99256;-46
2022/02/06 04:16:37;;;;;;;25.65;22.48;;;;;;;21.73;27.96;94961.84;4896616;28;96683;-39
2022/02/06 04:19:24;;;;;;;27.63;24.63;;;;;;;21.70;28.20;94966.19;4896266;28;96737;-42
2022/02/06 04:21:49;;;;;;;22.08;18.98;;;;;;;21.67;27.80;94953.25;4896209;28;99553;-41
2022/02/06 04:24:15;;;;;;;17.35;15.38;;;;;;;21.58;27.81;94948.13;4896345;28;99146;-41
2022/02/06 04:26:40;;;;;;;16.52;14.13;;;;;;;21.52;27.85;94952.47;4896143;28;96876;-41
2022/02/06 04:29:06;;;;;;;13.60;11.60;;;;;;;21.50;27.89;94963.06;4895988;28;96923;-43
2022/02/06 04:31:32;;;;;;;12.85;11.18;;;;;;;21.32;27.99;94961.19;4895564;28;99532;-43
2022/02/06 04:33:58;;;;;;;13.70;10.30;;;;;;;21.43;27.88;94976.84;4895667;28;99220;-41
2022/02/06 04:36:30;;;;;;;11.00;9.15;;;;;;;21.31;27.91;94975.28;4896364;28;97143;-43
2022/02/06 04:39:49;;;;;;;11.57;9.32;;;;;;;21.44;27.65;94975.69;4896302;28;96784;-39
2022/02/06 04:42:19;;;;;;;12.20;10.00;;;;;;;21.62;27.37;94983.88;4893119;28;99157;-40
2022/02/06 05:11:39;;;;;;;22.60;20.33;;;;;;;21.75;27.88;94987.78;4908005;28;96795;-41
2022/02/06 05:30:05;;;;;;;15.95;14.25;;;;;;;21.79;27.70;95015.25;4895642;28;96781;-46
2022/02/06 05:32:39;;;;;;;16.08;13.63;;;;;;;21.73;27.89;95017.63;4895169;28;96775;-44
2022/02/06 05:35:06;;;;;;;15.85;13.32;;;;;;;21.72;27.66;95021.56;4894925;28;99688;-47
2022/02/06 05:37:31;;;;;;;15.68;12.48;;;;;;;21.64;27.90;95016.47;4905888;28;99728;-46
2022/02/06 05:39:57;;;;;;;15.65;13.02;;;;;;;21.61;28.03;95020.78;4914458;28;96970;-42
2022/02/06 05:42:22;;;;;;;14.05;12.55;;;;;;;21.56;28.17;95024.69;4913651;28;96904;-42
2022/02/06 05:44:55;;;;;;;13.30;11.90;;;;;;;21.52;28.26;95023.91;4914400;28;99557;-41
2022/02/06 05:47:25;;;;;;;13.63;11.80;;;;;;;21.51;28.44;95027.84;4914236;28;99356;-40
2022/02/06 05:49:50;;;;;;;14.98;12.00;;;;;;;21.51;28.34;95027.84;4913971;28;96615;-41
2022/02/06 05:52:16;;;;;;;13.90;12.45;;;;;;;21.46;28.30;95031.03;4903398;28;97061;-41
2022/02/06 05:54:42;;;;;;;13.88;11.70;;;;;;;21.47;28.32;95032.59;4894786;28;99681;-40
2022/02/06 05:57:07;;;;;;;15.52;12.57;;;;;;;21.46;28.35;95037.28;4902997;28;99254;-41
2022/02/06 05:59:33;;;;;;;13.45;11.98;;;;;;;21.46;28.29;95031.03;4914230;28;96699;-43
2022/02/06 06:01:58;;;;;;;14.40;12.13;;;;;;;21.41;28.42;95031.44;4914512;28;96955;-43
2022/02/06 06:04:24;;;;;;;13.45;11.65;;;;;;;21.39;28.35;95031.03;4913889;28;97902;-42
2022/02/06 06:06:49;;;;;;;15.20;12.25;;;;;;;21.39;28.37;95036.53;4904829;28;99532;-42
2022/02/06 06:09:15;;;;;;;13.40;11.60;;;;;;;21.39;28.55;95031.03;4895062;28;96706;-46
2022/02/06 06:11:40;;;;;;;13.18;11.48;;;;;;;21.38;28.49;95043.22;4899680;28;96950;-42
2022/02/06 06:14:05;;;;;;;14.10;11.60;;;;;;;21.41;28.49;95040.44;4899597;28;99289;-43
2022/02/06 06:16:34;;;;;;;13.57;11.82;;;;;;;21.34;28.66;95037.69;4913780;28;99416;-45
2022/02/06 06:19:01;;;;;;;15.15;12.20;;;;;;;21.12;29.25;95047.94;4897446;28;96785;-45
2022/02/06 06:21:28;;;;;;;17.73;12.93;;;;;;;21.17;29.76;95047.53;4913942;28;96907;-45
2022/02/06 06:23:55;;;;;;;15.88;13.15;;;;;;;21.21;29.69;95047.53;4899138;28;99870;-40
2022/02/06 06:26:22;;;;;;;16.88;13.65;;;;;;;21.27;29.33;95052.25;4893702;28;99425;-47
2022/02/06 06:28:47;;;;;;;16.70;13.50;;;;;;;21.38;28.96;95056.94;4910566;28;96877;-44
2022/02/06 06:31:13;;;;;;;17.90;12.98;;;;;;;21.39;29.05;95050.28;4897120;28;97165;-42
2022/02/06 06:33:38;;;;;;;14.75;13.13;;;;;;;21.43;28.93;95056.53;4913385;28;99166;-41
2022/02/06 06:36:04;;;;;;;17.63;13.82;;;;;;;21.46;28.93;95053.78;4896469;28;97684;-43
2022/02/06 06:38:33;;;;;;;16.92;13.52;;;;;;;21.48;28.79;95062.41;4893663;28;96743;-44
2022/02/06 06:40:58;;;;;;;18.58;12.70;;;;;;;21.46;28.97;95058.50;4898442;28;98277;-44
2022/02/06 06:43:23;;;;;;;17.92;13.02;;;;;;;21.52;29.32;95067.13;4900740;28;99745;-42
2022/02/06 06:45:49;;;;;;;21.23;12.50;;;;;;;21.38;29.61;95056.94;4900445;28;99497;-44
2022/02/06 06:48:14;;;;;;;19.77;12.80;;;;;;;21.45;29.50;95062.44;4878316;28;96949;-46
2022/02/06 06:50:40;;;;;;;19.17;12.98;;;;;;;21.50;29.45;95066.72;4894927;28;96935;-43
2022/02/06 06:53:07;;;;;;;21.85;15.95;;;;;;;21.70;28.82;95061.59;4894255;28;99417;-42
2022/02/06 06:55:35;;;;;;;21.58;15.45;;;;;;;21.77;28.71;95061.59;4894554;28;99468;-45
2022/02/06 06:58:13;;;;;;;25.55;20.10;;;;;;;21.78;28.54;95063.16;4894529;28;96712;-45
2022/02/06 07:03:13;;;;;;;24.83;21.35;;;;;;;21.74;28.63;95067.88;4893300;28;97902;-46
2022/02/06 07:05:38;;;;;;;29.15;21.33;;;;;;;21.73;28.52;95069.88;4894192;28;99517;-44
2022/02/06 07:08:04;;;;;;;25.23;20.00;;;;;;;21.73;28.45;95072.63;4894391;28;96877;-44
2022/02/06 07:10:29;;;;;;;24.52;19.17;;;;;;;21.72;28.27;95075.75;4896271;28;96879;-42
2022/02/06 07:12:55;;;;;;;25.83;18.80;;;;;;;21.69;28.37;95082.03;4894679;28;97933;-43
2022/02/06 07:15:20;;;;;;;21.05;16.83;;;;;;;21.68;28.20;95085.97;4894717;28;99354;-46
2022/02/06 07:17:46;;;;;;;21.15;17.58;;;;;;;21.61;28.32;95075.75;4895081;28;96889;-45
2022/02/06 07:20:11;;;;;;;22.60;17.48;;;;;;;21.65;28.11;95090.31;4895453;28;96928;-42
2022/02/06 07:22:37;;;;;;;20.40;16.83;;;;;;;21.63;28.08;95095.41;4894772;28;99563;-45
2022/02/06 07:25:06;;;;;;;20.25;16.60;;;;;;;21.60;28.05;95088.69;4894982;28;99079;-42
2022/02/06 07:27:35;;;;;;;20.67;16.92;;;;;;;21.60;28.13;95085.94;4896245;28;96998;-44
2022/02/06 07:30:06;;;;;;;19.45;15.85;;;;;;;21.57;28.11;95081.22;4897495;28;96963;-42
2022/02/06 07:32:36;;;;;;;19.30;15.43;;;;;;;21.59;27.99;95089.88;4897056;28;99477;-43
2022/02/06 07:35:03;;;;;;;19.05;14.95;;;;;;;21.57;28.19;95091.47;4896728;28;99218;-42
2022/02/06 07:37:28;;;;;;;19.88;15.13;;;;;;;21.59;28.11;95089.88;4897163;28;96587;-44
2022/02/06 07:39:53;;;;;;;20.50;15.18;;;;;;;21.55;28.05;95089.09;4897321;28;96885;-44
2022/02/06 07:42:19;;;;;;;19.60;14.70;;;;;;;21.56;27.90;95076.16;4896931;28;99512;-43
2022/02/06 07:44:47;;;;;;;15.82;13.73;;;;;;;21.55;28.21;95086.34;4897114;28;99527;-44
2022/02/06 07:47:21;;;;;;;18.40;15.32;;;;;;;21.57;28.11;95086.72;4896894;28;96648;-41
2022/02/06 07:49:49;;;;;;;18.08;14.02;;;;;;;21.52;27.81;95083.59;4896801;28;96736;-45
2022/02/06 07:52:17;;;;;;;21.70;14.75;;;;;;;21.52;27.95;95089.88;4896218;28;99726;-42
2022/02/06 07:54:42;;;;;;;16.75;13.10;;;;;;;21.53;27.99;95087.94;4896646;28;99355;-43
2022/02/06 07:57:08;;;;;;;17.95;13.98;;;;;;;21.45;27.92;95078.91;4896802;28;96902;-42
2022/02/06 07:59:34;;;;;;;17.13;13.45;;;;;;;21.51;27.85;95087.53;4896950;28;96906;-44
2022/02/06 08:01:59;;;;;;;15.60;12.52;;;;;;;21.52;27.77;95078.88;4896385;28;99301;-44
2022/02/06 08:04:25;;;;;;;16.88;12.63;;;;;;;21.51;27.84;95087.53;4896437;28;97764;-44
2022/02/06 08:06:50;;;;;;;15.93;13.13;;;;;;;21.48;27.75;95083.63;4896796;28;96649;-42
2022/02/06 08:09:20;;;;;;;15.30;12.60;;;;;;;21.45;27.81;95084.41;4897045;28;97050;-44
2022/02/06 08:11:47;;;;;;;16.70;12.82;;;;;;;21.47;27.78;95082.06;4895939;28;99631;-48
2022/02/06 08:14:50;;;;;;;14.82;12.52;;;;;;;21.44;27.77;95082.84;4896044;28;98159;-42
2022/02/06 08:17:02;;;;;;;17.88;12.77;;;;;;;21.46;27.65;95080.50;4895769;28;96816;-50
2022/02/06 08:19:27;;;;;;;16.45;12.23;;;;;;;21.43;27.75;95081.28;4897217;28;97607;-44
2022/02/06 08:21:53;;;;;;;15.90;11.63;;;;;;;21.45;27.72;95084.41;4895980;28;99494;-47
2022/02/06 08:24:18;;;;;;;17.08;12.25;;;;;;;21.45;27.51;95084.41;4896173;28;99247;-50
2022/02/06 08:26:44;;;;;;;13.65;11.27;;;;;;;21.44;27.45;95089.13;4896563;28;96674;-48
2022/02/06 08:29:09;;;;;;;15.57;11.55;;;;;;;21.45;27.41;95076.16;4896354;28;96919;-50
2022/02/06 08:31:35;;;;;;;13.52;11.45;;;;;;;21.43;27.40;95081.28;4895984;28;99628;-51
2022/02/06 08:34:00;;;;;;;14.30;11.90;;;;;;;21.41;27.38;95078.13;4896251;28;99301;-46
2022/02/06 08:36:26;;;;;;;13.35;11.13;;;;;;;21.40;27.19;95080.09;4896275;28;96824;-50
2022/02/06 08:38:51;;;;;;;14.77;11.05;;;;;;;21.39;27.47;95080.50;4896150;28;96916;-47
2022/02/06 08:41:17;;;;;;;13.88;11.32;;;;;;;21.39;27.20;95075.78;4895668;28;97843;-48
2022/02/06 08:43:42;;;;;;;13.95;10.45;;;;;;;21.40;27.32;95071.06;4895920;28;99731;-46
2022/02/06 08:46:08;;;;;;;14.90;10.80;;;;;;;21.37;27.26;95069.13;4896091;28;96716;-49
2022/02/06 08:48:33;;;;;;;15.88;11.55;;;;;;;21.40;27.20;95071.06;4879185;28;97016;-44
2022/02/06 08:50:58;;;;;;;14.52;11.30;;;;;;;21.27;27.32;95062.44;4895810;28;99336;-50
2022/02/06 08:53:24;;;;;;;12.68;10.23;;;;;;;21.36;27.33;95070.28;4895891;28;99432;-47
2022/02/06 08:55:50;;;;;;;12.73;10.68;;;;;;;21.38;27.30;95068.69;4895916;28;96725;-49
2022/02/06 08:58:16;;;;;;;12.75;10.65;;;;;;;21.37;27.18;95074.59;4896474;28;96915;-47
2022/02/06 09:00:41;;;;;;;13.18;10.65;;;;;;;21.31;27.09;95063.22;4895502;28;99507;-44
2022/02/06 09:03:07;;;;;;;17.05;10.20;;;;;;;21.07;27.26;95070.28;4895719;28;99199;-47
2022/02/06 09:05:34;;;;;;;14.05;10.18;;;;;;;21.23;27.12;95067.94;4895416;28;96692;-46
2022/02/06 09:08:01;;;;;;;12.30;10.10;;;;;;;21.27;27.09;95068.72;4895767;28;97689;-47
2022/02/06 09:10:27;;;;;;;17.70;10.40;;;;;;;21.26;27.19;95071.84;4895472;28;99671;-47
2022/02/06 09:12:54;;;;;;;12.43;10.15;;;;;;;21.23;27.10;95073.44;4894875;28;99382;-41
2022/02/06 09:15:20;;;;;;;15.65;9.80;;;;;;;21.22;26.93;95082.06;4895920;28;96754;-43
2022/02/06 09:17:46;;;;;;;13.23;9.40;;;;;;;21.28;27.07;95075.78;4896094;28;96942;-44
2022/02/06 09:20:11;;;;;;;13.68;10.10;;;;;;;21.29;27.03;95076.56;4895620;28;99369;-47
2022/02/06 09:22:38;;;;;;;10.63;9.35;;;;;;;21.24;27.05;95072.25;4895956;28;99248;-43
2022/02/06 09:25:04;;;;;;;12.02;8.95;;;;;;;21.28;27.29;95075.78;4895562;28;96610;-43
2022/02/06 09:27:29;;;;;;;13.02;9.23;;;;;;;21.27;27.05;95076.97;4878638;28;96890;-42
2022/02/06 09:29:55;;;;;;;11.25;8.82;;;;;;;21.30;27.09;95078.13;4894792;28;99345;-49
2022/02/06 09:37:11;;;;;;;12.60;8.93;;;;;;;21.39;26.86;95064.78;4895856;28;96880;-44
2022/02/06 09:39:40;;;;;;;10.57;8.60;;;;;;;21.43;26.80;95060.06;4895202;28;99149;-44
2022/02/06 09:42:06;;;;;;;10.10;7.97;;;;;;;21.49;26.60;95063.19;4895118;28;99466;-43
2022/02/06 09:44:32;;;;;;;12.60;8.40;;;;;;;21.50;26.83;95067.50;4895523;28;96693;-44
2022/02/06 09:46:58;;;;;;;9.65;8.18;;;;;;;21.59;26.93;95059.63;4895678;28;97004;-41
2022/02/06 09:49:24;;;;;;;11.63;8.40;;;;;;;21.65;26.82;95060.06;4895217;28;99602;-41
2022/02/06 09:51:50;;;;;;;12.57;8.75;;;;;;;21.70;26.75;95056.13;4895059;28;99193;-41
2022/02/06 09:54:15;;;;;;;10.38;8.60;;;;;;;21.73;26.95;95058.06;4894929;28;96602;-44
2022/02/06 09:56:45;;;;;;;9.90;8.18;;;;;;;21.77;26.85;95053.34;4895337;28;96932;-50
2022/02/06 09:59:18;;;;;;;10.93;8.48;;;;;;;21.81;26.95;95045.88;4894864;28;99366;-46
2022/02/06 10:01:44;;;;;;;9.55;8.00;;;;;;;21.82;26.87;95036.44;4894882;28;99076;-46
2022/02/06 10:04:09;;;;;;;11.65;8.75;;;;;;;21.87;26.94;95025.03;4878215;28;96725;-44
2022/02/06 10:07:03;;;;;;;10.30;8.13;;;;;;;21.92;26.92;95030.13;4878204;28;97065;-41
2022/02/06 10:09:49;;;;;;;10.02;7.50;;;;;;;21.94;26.93;95023.44;4892326;28;98203;-42
2022/02/06 10:12:14;;;;;;;10.20;7.90;;;;;;;21.99;26.89;95023.03;4863770;28;99315;-44
2022/02/06 10:14:40;;;;;;;10.80;8.32;;;;;;;21.98;26.84;95022.22;4894452;28;99121;-43
2022/02/06 10:17:05;;;;;;;9.73;7.85;;;;;;;22.04;26.73;95008.88;4894546;28;96932;-46
2022/02/06 10:19:31;;;;;;;9.68;7.68;;;;;;;22.06;26.84;95001.00;4893809;28;99847;-46
2022/02/06 10:21:57;;;;;;;11.52;7.90;;;;;;;22.07;26.83;95008.06;4894245;28;99243;-44
2022/02/06 10:24:29;;;;;;;8.88;7.28;;;;;;;22.05;26.80;95005.69;4894222;28;96711;-45
2022/02/06 10:27:12;;;;;;;8.60;6.95;;;;;;;22.11;26.80;94995.06;4894838;28;96766;-43
2022/02/06 10:29:50;;;;;;;10.10;7.50;;;;;;;22.08;26.92;94993.09;4894470;28;99482;-42
2022/02/06 10:32:16;;;;;;;9.63;7.57;;;;;;;22.10;26.71;94990.72;4894612;28;99264;-42
2022/02/06 10:34:42;;;;;;;8.13;6.95;;;;;;;22.07;26.64;94991.56;4878075;28;96748;-46
2022/02/06 10:37:20;;;;;;;8.68;7.00;;;;;;;22.23;26.40;94982.03;4895149;28;96963;-43
2022/02/06 10:40:02;;;;;;;8.25;6.63;;;;;;;22.25;26.42;94974.16;4894596;28;99616;-43
2022/02/06 10:42:28;;;;;;;;;;;;;;;22.24;26.45;94970.63;4894886;28;99200;-41
2022/02/06 10:45:28;;;;;;;9.00;6.60;;;;;;;22.31;26.33;94956.03;4896345;28;96649;-41
2022/02/06 10:47:55;;;;;;;9.13;6.70;;;;;;;22.32;26.37;94957.59;4897883;28;96924;-43
2022/02/06 10:50:24;;;;;;;10.55;7.15;;;;;;;22.36;26.23;94944.59;4897560;28;99244;-44
2022/02/06 10:52:49;;;;;;;9.20;6.70;;;;;;;22.37;26.36;94948.91;4897598;28;100000;-43
2022/02/06 10:55:15;;;;;;;8.00;6.65;;;;;;;22.39;26.39;94935.53;4898127;28;96701;-46
2022/02/06 10:57:57;;;;;;;9.60;7.00;;;;;;;22.47;26.33;94936.28;4897972;28;96985;-45
2022/02/06 11:00:30;;;;;;;8.25;6.72;;;;;;;22.42;26.44;94929.22;4897519;28;99161;-48
2022/02/06 11:03:19;;;;;;;9.80;6.20;;;;;;;22.49;26.22;94929.22;4897876;28;99081;-43
2022/02/06 11:05:52;;;;;;;12.07;7.03;;;;;;;22.52;26.28;94932.34;4897559;28;96703;-49
2022/02/06 11:08:26;;;;;;;7.35;5.97;;;;;;;22.52;26.23;94932.34;4897882;28;96759;-44
2022/02/06 11:10:58;;;;;;;7.53;6.60;;;;;;;22.55;26.12;94915.78;4897071;28;99590;-46
2022/02/06 11:13:24;;;;;;;7.82;6.13;;;;;;;22.60;26.34;94925.59;4897260;28;99223;-47
2022/02/06 11:15:50;;;;;;;7.88;6.93;;;;;;;22.62;26.41;94914.97;4897720;28;96632;-47
2022/02/06 11:18:22;;;;;;;8.57;6.45;;;;;;;22.66;26.44;94918.47;4897626;28;96943;-50
2022/02/06 11:21:02;;;;;;;7.00;6.00;;;;;;;22.69;26.12;94923.13;4897195;28;99697;-50
2022/02/06 11:23:37;;;;;;;7.57;6.25;;;;;;;22.71;26.17;94912.50;4897039;28;99196;-48
2022/02/06 11:26:03;;;;;;;10.55;6.57;;;;;;;22.77;26.05;94907.34;4897587;28;96711;-45
2022/02/06 11:28:29;;;;;;;10.55;6.82;;;;;;;22.78;26.04;94900.66;4897804;28;96883;-45
2022/02/06 11:30:54;;;;;;;7.93;6.40;;;;;;;22.80;25.82;94904.56;4896986;28;99572;-41
2022/02/06 11:33:20;;;;;;;8.00;6.32;;;;;;;22.80;26.20;94899.03;4864293;28;99654;-44
2022/02/06 11:35:54;;;;;;;7.22;6.10;;;;;;;22.84;26.12;94892.72;4896797;28;96738;-43
2022/02/06 11:44:23;;;;;;;7.47;6.07;;;;;;;22.87;25.97;94875.38;4897274;28;97151;-44
2022/02/06 11:46:53;;;;;;;7.38;6.25;;;;;;;22.89;25.97;94879.31;4880775;28;96878;-46
2022/02/06 11:49:18;;;;;;;8.30;6.25;;;;;;;22.92;26.22;94872.97;4897128;28;97007;-45
2022/02/06 11:51:53;;;;;;;7.45;6.38;;;;;;;22.96;25.95;94867.41;4896669;28;99622;-49
2022/02/06 11:54:48;;;;;;;9.40;6.40;;;;;;;22.94;26.07;94864.28;4896890;28;99451;-47
2022/02/06 11:57:16;;;;;;;8.02;6.35;;;;;;;23.01;25.92;94858.72;4889298;28;96827;-45
2022/02/06 11:59:42;;;;;;;9.38;6.57;;;;;;;22.97;26.01;94852.47;4896924;28;96961;-45
2022/02/06 12:02:27;;;;;;;7.63;6.22;;;;;;;22.98;26.16;94854.03;4896297;28;98040;-44
2022/02/06 12:05:12;;;;;;;11.65;6.60;;;;;;;23.03;26.00;94842.56;4896293;28;99538;-44
2022/02/06 12:07:52;;;;;;;6.88;5.93;;;;;;;23.06;25.99;94838.97;4896833;28;96808;-42
2022/02/06 12:10:36;;;;;;;6.95;5.90;;;;;;;23.07;26.05;94834.25;4896983;28;96662;-44
2022/02/06 12:13:16;;;;;;;8.50;6.25;;;;;;;23.10;25.97;94834.22;4895673;28;99599;-45
2022/02/06 12:15:52;;;;;;;6.57;5.68;;;;;;;23.08;26.04;94830.28;4896160;28;99104;-44
2022/02/06 12:18:24;;;;;;;7.95;6.25;;;;;;;23.14;25.76;94830.63;4896886;28;97959;-47
2022/02/06 12:20:54;;;;;;;7.60;5.90;;;;;;;23.19;25.78;94825.44;4897129;28;96903;-49
2022/02/06 12:23:46;;;;;;;7.38;5.85;;;;;;;23.14;25.93;94822.38;4896447;28;99803;-43
2022/02/06 12:28:52;;;;;;;7.07;5.72;;;;;;;23.18;25.87;94823.13;4896387;28;96713;-43
2022/02/06 12:31:27;;;;;;;9.13;6.18;;;;;;;23.27;25.88;94819.88;4896373;28;96669;-45
2022/02/06 12:33:59;;;;;;;6.70;5.70;;;;;;;23.28;25.98;94816.69;4896330;28;99541;-50
2022/02/06 12:39:24;;;;;;;10.00;6.32;;;;;;;23.29;26.02;94807.22;4896892;28;96801;-44
2022/02/06 12:41:50;;;;;;;7.47;5.68;;;;;;;23.24;25.78;94810.47;4896512;28;96921;-44
2022/02/06 12:44:16;;;;;;;7.85;6.22;;;;;;;23.25;25.74;94812.03;4896153;28;99201;-45
2022/02/06 12:46:43;;;;;;;9.48;6.28;;;;;;;23.37;25.68;94797.69;4896136;28;99215;-47
2022/02/06 12:49:09;;;;;;;8.27;6.20;;;;;;;23.34;25.58;94793.00;4879299;28;96790;-42
2022/02/06 12:51:37;;;;;;;6.57;5.40;;;;;;;23.35;25.80;94786.28;4896145;28;97009;-43
2022/02/06 12:54:08;;;;;;;9.70;6.50;;;;;;;23.38;25.65;94788.22;4895305;28;99542;-46
2022/02/06 12:56:34;;;;;;;6.32;5.25;;;;;;;23.45;25.67;94787.34;4895764;28;99788;-44
2022/02/06 12:59:00;;;;;;;6.60;5.45;;;;;;;23.45;25.51;94783.81;4896024;28;96780;-43
2022/02/06 13:01:41;;;;;;;6.57;5.30;;;;;;;23.50;25.63;94783.34;4896269;28;97269;-44
2022/02/06 13:04:09;;;;;;;7.05;5.95;;;;;;;23.52;25.74;94781.75;4895632;28;99672;-44
2022/02/06 13:06:36;;;;;;;6.60;5.50;;;;;;;23.55;25.60;94777.38;4895453;28;99276;-43
2022/02/06 13:09:05;;;;;;;7.25;5.78;;;;;;;23.48;25.53;94770.00;4895084;28;96876;-48
2022/02/06 13:11:41;;;;;;;7.18;5.75;;;;;;;23.55;25.47;94769.09;4895983;28;97011;-44
2022/02/06 13:14:17;;;;;;;7.85;5.80;;;;;;;23.59;25.40;94764.31;4879861;28;99563;-42
2022/02/06 13:22:12;;;;;;;7.70;5.35;;;;;;;23.56;25.45;94740.34;4895894;28;96873;-45
2022/02/06 13:27:54;;;;;;;7.22;5.78;;;;;;;23.61;25.17;94739.88;4894068;28;97692;-44
2022/02/06 13:30:32;;;;;;;6.97;5.60;;;;;;;23.61;25.55;94731.59;4895231;28;96887;-44
2022/02/06 13:33:09;;;;;;;7.63;5.78;;;;;;;23.64;25.48;94733.53;4880391;28;96738;-45
2022/02/06 13:35:45;;;;;;;7.47;6.03;;;;;;;23.68;25.53;94727.94;4879819;28;99780;-43
2022/02/06 13:38:16;;;;;;;7.07;5.65;;;;;;;23.68;25.50;94728.72;4895709;28;99270;-44
2022/02/06 13:40:48;;;;;;;7.30;5.77;;;;;;;23.74;25.24;94731.00;4895731;28;97024;-42
2022/02/06 13:43:19;;;;;;;;;;;;;;;23.75;25.26;94724.31;4895789;28;96950;-43
2022/02/06 13:45:44;;;;;;;6.22;5.05;;;;;;;23.78;25.43;94706.91;4894894;28;99577;-43
2022/02/06 13:48:10;;;;;;;5.60;5.00;;;;;;;23.81;25.16;94711.59;4894982;28;99228;-45
2022/02/06 13:50:42;;;;;;;6.22;5.18;;;;;;;23.82;25.12;94715.91;4895234;28;96621;-42
2022/02/06 13:53:19;;;;;;;6.90;5.30;;;;;;;23.81;25.16;94697.81;4879278;28;96724;-45
2022/02/06 13:56:01;;;;;;;6.07;5.40;;;;;;;23.82;25.23;94699.38;4894911;28;98765;-44
2022/02/06 13:58:27;;;;;;;7.75;5.47;;;;;;;23.83;25.24;94703.69;4895219;28;99465;-44
2022/02/06 14:00:53;;;;;;;6.05;5.00;;;;;;;23.84;25.28;94696.97;4895327;28;96742;-43
2022/02/06 14:03:19;;;;;;;6.70;5.38;;;;;;;23.83;25.25;94695.41;4895591;28;96963;-43